NWS Home NWS Lubbock West Texas Mesonet Central Sector Latest Conditions as of 1254 AM, Sun Jan 19, 2020

Latest   N   C   S   Daily Sum   3hrΔ   24hrΔ   Soil Data 
Site Map   24hr Precip   72hr Precip   Google Plot


Station Time of Last Temp Dew Pt. RH Wind Direction Wind Speed Wind Gust Max Wind Max Temp Min Temp Max RH Min RH Altimeter 1HR Rain Today's Rain Solar Rad Wind Chill
Abernathy 5ENE  12:50 AM 28 22 80% SE78 8 mph 147° @ 1250 AM 29 28 81 79 30.44" 0 0.00 0 20
Aiken 3WSW  12:45 AM 27 23 84% SE88 10 mph 152° @ 1201 AM 29 27 84 79 30.45" 0 0.00 0 19
Amherst 1NE  12:50 AM 26 20 80% SE55 10 mph 143° @ 1220 AM 26 26 81 80 30.42" 0 0.00 0  
Anton 6SSW  12:50 AM 26 22 82% SE56 7 mph 146° @ 1240 AM 27 26 83 82 30.43" 0 0.00 0  
Aspermont 3NE  12:50 AM 27 24 90% NW45 5 mph 318° @ 1250 AM 27 25 93 90 30.49" 0 0.00 0  
Bootleg 11WNW  12:50 AM 26 20 77% S1112 14 mph 154° @ 1243 AM 28 25 80 73 30.41" 0 0.00 0 16
Brownfield 2S  12:50 AM 28 23 82% E78 9 mph 112° @ 1205 AM 29 28 83 81 30.44" 0 0.00 0 21
Caprock Canyons State Park  12:50 AM 31 22 68% S910 11 mph 205° @ 1228 AM 32 31 70 66 30.48" 0 0.00 0 23
Childress 2NNE  12:50 AM 33 21 63% SE78 8 mph 132° @ 1240 AM 34 33 64 62 30.48" 0 0.00 0 27
Clarendon 2WSW  12:50 AM 29 21 70% SE89 12 mph 151° @ 1225 AM 31 29 70 69 30.46" 0 0.00 0 21
Claude 12SW  12:50 AM 31 19 60% SE1012 12 mph 148° @ 1250 AM 31 26 71 60 30.43" 0 0.00 0 23
Crowell 1E  12:50 AM 33 24 70% NE44 7 mph 36° @ 1204 AM 34 33 71 67 30.51" 0 0.00 0  
Denver City 7WNW  12:50 AM 27 23 87% SE56 8 mph 128° @ 1205 AM 27 26 88 85 30.42" 0 0.00 0 21
Dimmitt 2NE  12:50 AM 25 20 81% S1012 12 mph 168° @ 1250 AM 25 24 83 80 30.42" 0 0.00 0 15
Dora NM 2SW  12:50 AM 27 21 78% S1114 15 mph 159° @ 1230 AM 27 27 78 75 30.40" 0 0.00 0 17
Earth 9WSW  12:50 AM 27 22 78% SE1011 13 mph 160° @ 1237 AM 27 23 85 78 30.43" 0 0.00 0 18
Estelline 3SSE  12:50 AM 32 22 66% S77 10 mph 169° @ 1241 AM 33 31 73 63 30.50" 0 0.00 0 26
Floydada 2NNE  12:50 AM 25 19 80% SE67 9 mph 151° @ 1205 AM 28 25 80 75 30.45" 0 0.00 0 18
Fluvanna 3WNW  12:50 AM 32 22 65% NE811 11 mph 52° @ 1220 AM 33 32 70 63 30.45" 0 0.00 0 25
Friona 2NE  12:50 AM 27 23 82% S1013 17 mph 151° @ 1205 AM 28 27 83 79 30.42" 0 0.00 0 17
Gail 2ESE  12:50 AM 30 22 71% NE55 7 mph 45° @ 1235 AM 31 30 71 67 30.45" 0 0.00 0  
Goodlett 3W  12:50 AM 32 23 71% SE67 8 mph 117° @ 1220 AM 35 31 74 59 30.49" 0 0.00 0 26
Graham 5SSW  12:50 AM 34 22 60% E911 13 mph 84° @ 1215 AM 35 34 60 57 30.45" 0 0.00 0 27
Guthrie 10WSW  12:50 AM 30 21 69% N12 3 mph 111° @ 1210 AM 30 26 79 66 30.48" 0 0.00 0  
Hackberry 2 SSE  12:50 AM 34 21 59% E88 9 mph 102° @ 1203 AM 35 32 64 57 30.50" 0 0.00 0 28
Happy 1E  12:50 AM 21 18 85% S77 10 mph 174° @ 1213 AM 24 21 85 78 30.44" 0 0.00 0 12
Hart 3N  12:50 AM 22 18 87% SE56 8 mph 153° @ 1215 AM 25 22 87 83 30.42" 0 0.00 0 15
Haskell 1NW  12:50 AM 31 27 86% NE56 7 mph 22° @ 1205 AM 34 31 87 75 30.49" 0 0.00 0 26
Hefner 1SW  12:50 AM 35 25 67% E22 6 mph 45° @ 1201 AM 36 32 81 64 30.51" 0 0.00 0  
Hereford 2NW  12:50 AM 26 19 76% SE68 11 mph 159° @ 1230 AM 28 26 76 71 30.41" 0 0.00 0 19
Hobbs NM 5NW  12:50 AM 34 23 63% SE910 17 mph 121° @ 1214 AM 35 34 65 63 30.44" 0 0.00 0 27
Jayton 1SSE  12:50 AM 34 23 63% NE89 9 mph 46° @ 1250 AM 34 33 67 63 30.48" 0 0.00 0 27
Knox City 3NW  12:50 AM 30 28 92% SW34 6 mph 204° @ 1235 AM 30 29 94 92 30.51" 0 0.00 0  
Lake Alan Henry 1NW  12:50 AM 32 22 67% E33 7 mph 66° @ 1225 AM 34 32 67 63 30.47" 0 0.00 0  
Lamesa 2SE  12:50 AM 32 25 73% E67 10 mph 82° @ 1240 AM 33 32 76 69 30.45" 0 0.00 0 27
Lesley 2S  12:50 AM 32 24 74% S33 7 mph 92° @ 1201 AM 34 32 75 61 30.48" 0 0.00 0  
Levelland 4S  12:50 AM 30 23 74% SE68 10 mph 122° @ 1205 AM 31 30 74 72 30.43" 0 0.00 0 24
Lubbock 3WNW TTU  12:50 AM 34 21 58% SE812 13 mph 124° @ 1205 AM 35 34 59 56 30.45" 0 0.00 0 27
Memphis 1NE  12:50 AM 28 24 84% NW45 5 mph 305° @ 1245 AM 29 27 88 84 30.49" 0 0.00 0  
Morton 1ENE  12:50 AM 27 20 73% S67 8 mph 149° @ 1215 AM 28 27 73 70 30.42" 0 0.00 0 20
Muleshoe 2SSW  12:50 AM 30 23 77% SE911 13 mph 155° @ 1235 AM 30 25 87 77 30.42" 0 0.00 0 22
New Home  12:50 AM 29 23 78% SE56 9 mph 109° @ 1228 AM 32 29 78 72 30.45" 0 0.00 0 23
Northfield 1S  12:50 AM 30 21 66% SW45 9 mph 138° @ 1205 AM 33 30 67 59 30.49" 0 0.00 0  
O'Donnell 1N  12:50 AM 29 25 85% E78 8 mph 76° @ 1250 AM 31 29 87 80 30.45" 0 0.00 0 22
Odell 4ENE  12:50 AM 29 23 77% NE11 4 mph 52° @ 1201 AM 33 29 77 60 30.52" 0 0.00 0  
Olton 6S  12:50 AM 25 21 85% SE910 11 mph 148° @ 1220 AM 26 25 86 85 30.44" 0 0.00 0 16
Paducah 10SW  12:50 AM 34 22 61% SW12 4 mph 196° @ 1230 AM 34 33 65 61 30.49" 0 0.00 0  
Palo Duro 4E (JA Ranch)  12:50 AM 21 17 86% SW22 4 mph 215° @ 1224 AM 21 20 88 85 30.48" 0 0.00 0  
Palo Duro Canyon SP Floor  12:50 AM 25 17 71% NW11 3 mph 311° @ 1212 AM 26 24 75 69 30.47" 0 0.00 0  
Palo Duro Canyon State Park Rim  12:50 AM 28 15 58% E45 6 mph 173° @ 1232 AM 30 28 58 52 30.45" 0 0.00 0  
Plains 3N  12:50 AM 27 23 84% SE78 9 mph 123° @ 1210 AM 28 27 84 82 30.42" 0 0.00 0 19
Plainview 1S  12:50 AM 30 23 74% SE710 12 mph 149° @ 1225 AM 31 30 78 74 30.44" 0 0.00 0 23
Post 1NE  12:50 AM 33 22 63% E23 4 mph 73° @ 1225 AM 34 33 66 60 30.47" 0 0.00 0  
Ralls 1SE  12:50 AM 30 21 66% SE79 10 mph 125° @ 1235 AM 31 29 73 65 30.46" 0 0.00 0 23
Reese Center  12:50 AM 31 22 67% SE89 12 mph 129° @ 1215 AM 33 31 67 63 30.44" 0 0.00 0 24
Roaring Springs 3N  12:50 AM 34 22 63% SE46 9 mph 206° @ 1205 AM 34 31 68 63 30.47" 0 0.00 0  
Rotan 5W  12:50 AM 33 26 74% NE67 12 mph 25° @ 1207 AM 35 33 74 69 30.48" 0 0.00 0 27
Seagraves 1SW  12:50 AM 30 24 79% E35 8 mph 111° @ 1205 AM 31 30 79 76 30.43" 0 0.00 0  
Seminole 2NNE  12:50 AM 30 24 79% E67 12 mph 108° @ 1205 AM 32 30 79 74 30.43" 0 0.00 0 24
Seymour 3NW  12:50 AM 29 25 83% N66 7 mph 20° @ 1205 AM 32 29 84 77 30.50" 0 0.00 0 23
Silverton 7ESE  12:50 AM 25 19 77% SE1011 11 mph 140° @ 1250 AM 27 25 78 73 30.45" 0 0.00 0 15
Slaton 2NE  12:50 AM 32 23 70% E67 7 mph 101° @ 1220 AM 32 32 73 68 30.45" 0 0.00 0 26
Smyer  12:50 AM 30 23 73% SE57 8 mph 127° @ 1248 AM 30 30 75 73 30.44" 0 0.00 0 24
Snyder 3E  12:50 AM 33 26 75% NE810 12 mph 43° @ 1205 AM 34 33 75 69 30.46" 0 0.00 0 26
Snyder 3SSW  12:50 AM 32 24 72% NE66 8 mph 37° @ 1213 AM 33 32 72 68 30.46" 0 0.00 0 26
South Plains 3ENE  12:50 AM 27 21 79% SE78 10 mph 131° @ 1244 AM 27 23 86 78 30.46" 0 0.00 0 20
Spur 1W  12:50 AM 28 26 91% N44 4 mph 1° @ 1250 AM 29 28 91 86 30.47" 0 0.00 0  
Stamford 5ESE  12:50 AM 32 27 82% N88 10 mph 14° @ 1220 AM 34 32 82 80 30.50" 0 0.00 0 25
Sundown 8WSW  12:50 AM 25 21 82% SE77 9 mph 121° @ 1205 AM 27 25 82 79 30.42" 0 0.00 0 17
Tahoka 3NNE  12:50 AM 32 21 64% E89 14 mph 106° @ 1236 AM 33 30 71 60 30.44" 0 0.00 0 25
Tatum NM 2SW  12:50 AM 24 20 84% SE78 10 mph 144° @ 1210 AM 25 24 84 82 30.41" 0 0.00 0 16
Throckmorton 1SW  12:50 AM 33 22 66% N34 4 mph 355° @ 1212 AM 34 33 68 64 30.50" 0 0.00 0  
Truscott 2SE  12:50 AM 33 25 74% NW33 5 mph 4° @ 1208 AM 33 32 78 73 30.50" 0 0.00 0  
Tulia 2ENE  12:50 AM 28 21 74% S1011 13 mph 151° @ 1235 AM 29 26 79 73 30.43" 0 0.00 0 19
Turkey 2WSW  12:50 AM 31 23 73% S78 8 mph 172° @ 1245 AM 33 31 73 66 30.48" 0 0.00 0 24
Umbarger 3NNE  12:50 AM 26 19 73% SE78 12 mph 171° @ 1221 AM 29 26 73 69 30.42" 0 0.00 0 18
Vigo Park  12:50 AM 25 19 78% SE910 12 mph 125° @ 1227 AM 26 24 82 76 30.45" 0 0.00 0 15
Weinert 2NNE  12:50 AM 33 24 70% NE45 8 mph 56° @ 1214 AM 36 33 70 60 30.51" 0 0.00 0  
Welch  12:50 AM 29 26 88% E45 8 mph 101° @ 1218 AM 31 29 88 82 30.45" 0 0.00 0  
White River Lake 6NW  12:50 AM 33 20 60% E89 10 mph 87° @ 1245 AM 34 33 60 57 30.46" 0 0.00 0 26
Wolfforth 6SSW  12:50 AM 28 23 82% SE89 9 mph 123° @ 1250 AM 29 28 82 81 30.44" 0 0.00 0 20

West Texas Mesonet Home   Site Map/Menu  NWS Lubbock Soil Data  Daily Summary Page  24hr Precip  72hr Precip  Google Plot